Time;durP1;ratioP1;P1;durP2;ratioP2;P2;SDS_P1;SDS_P2;PMS_P1;PMS_P2;Temp;Humidity;BMP_temperature;BMP_pressure;BME280_temperature;BME280_humidity;BME280_pressure;Samples;Min_cycle;Max_cycle;Signal;HPM_P1;HPM_P2
2021/12/07 00:00:37;;;;;;;1.50;1.40;;;2.10;99.90;;;;;;4962451;28;20043;-88
2021/12/07 00:03:03;;;;;;;0.98;0.98;;;2.10;99.90;;;;;;4970416;28;20039;-88
2021/12/07 00:05:28;;;;;;;0.98;0.98;;;2.00;99.90;;;;;;4982141;28;20111;-87
2021/12/07 00:07:54;;;;;;;4.07;1.73;;;2.00;99.90;;;;;;4979219;28;20050;-88
2021/12/07 00:10:20;;;;;;;1.00;1.00;;;2.00;99.90;;;;;;4975215;28;20047;-88
2021/12/07 00:12:46;;;;;;;1.40;1.30;;;2.00;99.90;;;;;;4961539;28;20065;-87
2021/12/07 00:15:16;;;;;;;1.42;1.27;;;2.00;99.90;;;;;;4971918;28;20062;-87
2021/12/07 00:17:42;;;;;;;0.90;0.90;;;2.00;99.90;;;;;;4974593;28;20042;-87
2021/12/07 00:20:11;;;;;;;1.23;1.15;;;2.00;99.90;;;;;;4952519;28;20069;-88
2021/12/07 00:22:38;;;;;;;1.05;1.00;;;2.00;99.90;;;;;;4960256;28;20051;-88
2021/12/07 00:25:05;;;;;;;2.80;1.98;;;2.00;99.90;;;;;;4970302;28;20271;-89
2021/12/07 00:27:32;;;;;;;1.63;1.52;;;1.90;99.90;;;;;;4982217;28;20106;-88
2021/12/07 00:29:57;;;;;;;0.90;0.90;;;1.90;99.90;;;;;;4951816;28;20135;-87
2021/12/07 00:32:36;;;;;;;1.30;1.20;;;1.90;99.90;;;;;;4962847;28;20043;-87
2021/12/07 00:37:48;;;;;;;0.90;0.90;;;1.90;99.90;;;;;;4967652;28;20071;-88
2021/12/07 00:40:17;;;;;;;1.00;1.00;;;1.90;99.90;;;;;;4951698;28;20145;-88
2021/12/07 00:42:43;;;;;;;1.70;1.60;;;1.80;99.90;;;;;;4953419;28;20055;-87
2021/12/07 00:45:10;;;;;;;0.90;0.90;;;1.80;99.90;;;;;;4965396;28;20054;-87
2021/12/07 00:47:36;;;;;;;1.58;1.50;;;1.80;99.90;;;;;;4952637;28;20054;-87
2021/12/07 00:50:05;;;;;;;0.95;0.95;;;1.80;99.90;;;;;;4960995;29;20066;-87
2021/12/07 00:52:30;;;;;;;1.33;1.23;;;1.70;99.90;;;;;;4965607;28;20499;-88
2021/12/07 00:54:56;;;;;;;1.35;1.25;;;1.70;99.90;;;;;;4954883;28;20043;-89
2021/12/07 00:57:24;;;;;;;0.80;0.80;;;1.70;99.90;;;;;;4949155;28;20047;-89
2021/12/07 00:59:51;;;;;;;1.52;1.42;;;1.60;99.90;;;;;;4965896;28;20408;-88
2021/12/07 01:02:16;;;;;;;1.45;1.35;;;1.60;99.90;;;;;;4958297;28;20054;-88
2021/12/07 01:04:51;;;;;;;1.70;1.60;;;1.60;99.90;;;;;;4962395;28;20038;-89
2021/12/07 01:07:35;;;;;;;1.02;1.02;;;1.50;99.90;;;;;;4957478;28;20049;-88
2021/12/07 01:26:25;;;;;;;0.90;0.90;;;1.30;99.90;;;;;;4964812;28;19946;-87
2021/12/07 01:28:51;;;;;;;1.42;1.33;;;1.30;99.90;;;;;;4976593;28;20051;-87
2021/12/07 01:31:24;;;;;;;2.08;1.23;;;1.30;99.90;;;;;;4958510;28;20043;-88
2021/12/07 01:36:35;;;;;;;0.90;0.90;;;1.20;99.90;;;;;;4981549;28;20047;-86
2021/12/07 01:39:37;;;;;;;3.35;1.80;;;1.20;99.90;;;;;;4964426;28;20051;-87
2021/12/07 01:50:16;;;;;;;2.25;2.15;;;1.20;99.90;;;;;;4965648;28;20062;-86
2021/12/07 01:52:56;;;;;;;1.10;1.10;;;1.10;99.90;;;;;;4952091;28;20489;-87
2021/12/07 02:00:55;;;;;;;0.80;0.80;;;1.10;99.90;;;;;;4965733;28;19932;-87
2021/12/07 02:03:22;;;;;;;0.80;0.80;;;1.10;99.90;;;;;;4967968;28;20043;-88
2021/12/07 02:05:47;;;;;;;1.17;1.13;;;1.10;99.90;;;;;;4962467;28;20106;-86
2021/12/07 02:08:13;;;;;;;0.90;0.90;;;1.10;99.90;;;;;;4961280;29;20107;-87
2021/12/07 02:10:39;;;;;;;0.80;0.80;;;1.10;99.90;;;;;;4974741;28;20039;-87
2021/12/07 02:13:18;;;;;;;0.90;0.90;;;1.00;99.90;;;;;;4962496;28;20126;-87
2021/12/07 02:15:44;;;;;;;1.00;0.98;;;1.10;99.90;;;;;;4966268;28;20284;-87
2021/12/07 02:18:10;;;;;;;1.00;1.00;;;1.00;99.90;;;;;;4964616;28;20039;-86
2021/12/07 02:20:35;;;;;;;0.90;0.90;;;1.10;99.90;;;;;;4979056;28;20039;-87
2021/12/07 02:23:01;;;;;;;0.85;0.85;;;1.00;99.90;;;;;;4978822;28;20063;-87
2021/12/07 02:25:28;;;;;;;1.02;1.02;;;1.10;99.90;;;;;;4953992;29;20054;-86
2021/12/07 02:27:54;;;;;;;1.20;1.10;;;1.10;99.90;;;;;;4960859;28;20042;-86
2021/12/07 02:30:23;;;;;;;1.70;1.60;;;1.10;99.90;;;;;;4957663;28;20102;-87
2021/12/07 02:32:52;;;;;;;0.90;0.90;;;1.10;99.90;;;;;;4961475;28;20101;-87
2021/12/07 02:35:24;;;;;;;1.25;1.15;;;1.10;99.90;;;;;;4972400;28;20052;-87
2021/12/07 02:37:51;;;;;;;1.10;1.10;;;1.10;99.90;;;;;;4961443;28;20042;-87
2021/12/07 02:40:17;;;;;;;0.80;0.80;;;1.10;99.90;;;;;;4970314;28;20130;-88
2021/12/07 02:42:44;;;;;;;0.90;0.90;;;1.10;99.90;;;;;;4961356;28;20452;-87
2021/12/07 02:45:10;;;;;;;0.85;0.85;;;1.10;99.90;;;;;;4964643;28;20137;-87
2021/12/07 02:47:36;;;;;;;0.80;0.80;;;1.40;99.90;;;;;;4952420;28;20104;-88
2021/12/07 02:50:04;;;;;;;1.20;1.10;;;1.10;99.90;;;;;;4963704;28;20046;-86
2021/12/07 02:52:30;;;;;;;1.20;1.10;;;1.20;99.90;;;;;;4949868;28;20058;-87
2021/12/07 02:54:56;;;;;;;3.45;3.17;;;1.10;99.90;;;;;;4955039;28;20039;-86
2021/12/07 02:57:22;;;;;;;0.80;0.80;;;1.10;99.90;;;;;;4959319;28;20138;-87
2021/12/07 02:59:57;;;;;;;0.80;0.80;;;1.10;99.90;;;;;;4965412;28;20095;-88
2021/12/07 03:02:23;;;;;;;1.00;1.00;;;1.20;99.90;;;;;;4967530;28;20051;-88
2021/12/07 03:05:03;;;;;;;0.80;0.80;;;1.30;99.90;;;;;;4976957;28;20054;-88
2021/12/07 03:26:15;;;;;;;0.80;0.80;;;1.10;99.90;;;;;;4986283;28;20086;-87
2021/12/07 03:28:47;;;;;;;1.27;1.17;;;1.10;99.90;;;;;;4971097;28;20134;-87
2021/12/07 03:31:15;;;;;;;1.25;1.20;;;1.10;99.90;;;;;;4979815;28;20057;-87
2021/12/07 03:33:40;;;;;;;1.25;1.17;;;1.10;99.90;;;;;;4970351;28;20051;-87
2021/12/07 03:36:08;;;;;;;0.95;0.95;;;1.10;99.90;;;;;;4967269;28;20114;-87
2021/12/07 03:38:34;;;;;;;0.90;0.90;;;1.00;99.90;;;;;;4956931;28;20117;-87
2021/12/07 03:41:00;;;;;;;0.80;0.80;;;0.90;99.90;;;;;;4961574;28;20047;-88
2021/12/07 03:43:26;;;;;;;1.10;1.00;;;0.90;99.90;;;;;;4955817;28;20035;-88
2021/12/07 03:45:52;;;;;;;1.00;1.00;;;1.00;99.90;;;;;;4956282;28;20107;-88
2021/12/07 03:48:18;;;;;;;0.80;0.80;;;0.80;99.90;;;;;;4973374;28;20051;-88
2021/12/07 03:50:44;;;;;;;1.67;1.40;;;0.70;99.90;;;;;;4948817;29;20049;-89
2021/12/07 03:53:10;;;;;;;0.80;0.80;;;0.70;99.90;;;;;;4975088;28;20106;-88
2021/12/07 03:55:36;;;;;;;0.80;0.80;;;0.70;99.90;;;;;;4957898;28;20050;-88
2021/12/07 03:58:01;;;;;;;0.90;0.90;;;0.70;99.90;;;;;;4959482;28;20047;-87
2021/12/07 04:00:29;;;;;;;0.80;0.80;;;0.60;99.90;;;;;;4960678;28;20068;-88
2021/12/07 04:02:56;;;;;;;0.90;0.90;;;0.60;99.90;;;;;;4965723;28;20103;-88
2021/12/07 04:05:24;;;;;;;0.82;0.82;;;0.60;99.90;;;;;;4972737;28;20078;-88
2021/12/07 04:07:51;;;;;;;2.15;1.23;;;0.60;99.90;;;;;;4971127;28;20043;-87
2021/12/07 04:10:18;;;;;;;0.82;0.82;;;0.50;99.90;;;;;;4960849;28;20077;-88
2021/12/07 04:12:44;;;;;;;0.90;0.90;;;0.50;99.90;;;;;;4965420;28;20035;-88
2021/12/07 04:15:13;;;;;;;0.85;0.85;;;0.50;99.90;;;;;;4963660;28;20050;-88
2021/12/07 04:17:39;;;;;;;0.90;0.90;;;0.50;99.90;;;;;;4982382;28;20078;-88
2021/12/07 04:20:07;;;;;;;0.80;0.80;;;0.50;99.90;;;;;;4970568;28;20058;-88
2021/12/07 04:22:32;;;;;;;0.88;0.88;;;0.40;99.90;;;;;;4965867;28;20046;-88
2021/12/07 04:24:58;;;;;;;1.08;1.08;;;0.50;99.90;;;;;;4953945;28;20094;-88
2021/12/07 04:27:24;;;;;;;0.80;0.80;;;0.30;99.90;;;;;;4972847;28;20051;-87
2021/12/07 04:29:49;;;;;;;1.52;1.45;;;0.30;99.90;;;;;;4961427;28;20074;-88
2021/12/07 04:32:15;;;;;;;0.88;0.88;;;0.30;99.90;;;;;;4968192;28;20168;-88
2021/12/07 04:34:41;;;;;;;0.80;0.80;;;0.30;99.90;;;;;;4949348;28;20106;-88
2021/12/07 04:37:06;;;;;;;1.25;1.17;;;0.20;99.90;;;;;;4952850;28;20039;-87
2021/12/07 04:39:32;;;;;;;1.23;1.13;;;0.20;99.90;;;;;;4964310;28;20043;-88
2021/12/07 04:41:58;;;;;;;0.90;0.90;;;0.30;99.90;;;;;;4960888;28;20039;-88
2021/12/07 04:44:24;;;;;;;1.58;1.48;;;0.20;99.90;;;;;;4951871;29;20057;-88
2021/12/07 04:59:58;;;;;;;0.80;0.80;;;0.30;99.90;;;;;;4968039;28;20122;-86
2021/12/07 05:02:24;;;;;;;1.38;1.27;;;0.40;99.90;;;;;;4963778;28;20098;-88
2021/12/07 05:04:50;;;;;;;0.90;0.90;;;0.30;99.90;;;;;;4959527;28;20035;-88
2021/12/07 05:07:25;;;;;;;0.90;0.90;;;0.30;99.90;;;;;;4970868;28;20428;-87
2021/12/07 05:10:11;;;;;;;0.85;0.85;;;0.30;99.90;;;;;;4948819;28;20074;-88
2021/12/07 05:34:46;;;;;;;0.90;0.90;;;0.10;99.90;;;;;;4976482;28;20472;-88
2021/12/07 05:40:04;;;;;;;1.00;1.00;;;0.10;99.90;;;;;;4969089;28;20177;-88
2021/12/07 05:42:30;;;;;;;0.75;0.75;;;0.10;99.90;;;;;;4958235;28;20046;-88
2021/12/07 05:44:56;;;;;;;0.88;0.88;;;0.10;99.90;;;;;;4969890;28;20039;-89
2021/12/07 05:47:22;;;;;;;0.90;0.90;;;0.10;99.90;;;;;;4972393;28;20057;-88
2021/12/07 05:49:48;;;;;;;0.90;0.90;;;0.10;99.90;;;;;;4962035;28;20043;-86
2021/12/07 05:52:13;;;;;;;0.90;0.90;;;0.20;99.90;;;;;;4956249;29;20202;-86
2021/12/07 05:54:39;;;;;;;1.00;1.00;;;0.20;99.90;;;;;;4963136;28;20042;-87
2021/12/07 05:57:05;;;;;;;0.90;0.90;;;0.30;99.90;;;;;;4967891;28;20122;-87
2021/12/07 05:59:31;;;;;;;0.80;0.80;;;0.30;99.90;;;;;;4953428;28;20043;-87
2021/12/07 06:01:57;;;;;;;0.90;0.90;;;0.30;99.90;;;;;;4972920;28;20039;-88
2021/12/07 06:04:22;;;;;;;0.90;0.90;;;0.30;99.90;;;;;;4963318;28;20043;-88
2021/12/07 06:06:48;;;;;;;0.80;0.80;;;0.30;99.90;;;;;;4959095;28;20045;-88
2021/12/07 06:09:13;;;;;;;0.80;0.80;;;0.30;99.90;;;;;;4970208;28;20070;-88
2021/12/07 06:11:40;;;;;;;0.82;0.82;;;0.30;99.90;;;;;;4959308;28;20092;-88
2021/12/07 06:14:07;;;;;;;0.80;0.80;;;0.40;99.90;;;;;;4960576;28;20418;-88
2021/12/07 06:16:32;;;;;;;0.90;0.90;;;0.40;99.90;;;;;;4949159;28;20062;-88
2021/12/07 06:18:58;;;;;;;1.40;1.30;;;0.30;99.90;;;;;;4972952;28;20121;-86
2021/12/07 06:21:25;;;;;;;1.05;1.05;;;0.30;99.90;;;;;;4978104;28;20053;-87
2021/12/07 06:23:52;;;;;;;0.95;0.93;;;0.40;99.90;;;;;;4958873;28;20039;-88
2021/12/07 06:26:19;;;;;;;0.80;0.80;;;0.40;99.90;;;;;;4955325;28;20047;-88
2021/12/07 06:28:44;;;;;;;0.80;0.80;;;0.40;99.90;;;;;;4968596;28;20039;-87
2021/12/07 06:31:10;;;;;;;0.88;0.88;;;0.40;99.90;;;;;;4956049;28;20111;-88
2021/12/07 06:33:36;;;;;;;0.90;0.90;;;0.40;99.90;;;;;;4972788;28;20050;-88
2021/12/07 06:36:04;;;;;;;0.93;0.93;;;0.30;99.90;;;;;;4972723;28;20039;-86
2021/12/07 06:38:31;;;;;;;0.82;0.82;;;0.30;99.90;;;;;;4962643;28;20053;-87
2021/12/07 06:40:59;;;;;;;0.90;0.90;;;0.20;99.90;;;;;;4973725;28;20105;-87
2021/12/07 06:43:25;;;;;;;0.75;0.75;;;0.20;99.90;;;;;;4954645;28;20039;-86
2021/12/07 06:45:51;;;;;;;0.80;0.80;;;0.20;99.90;;;;;;4969353;28;20051;-87
2021/12/07 06:48:17;;;;;;;1.00;1.00;;;0.30;99.90;;;;;;4968417;28;20507;-87
2021/12/07 06:50:43;;;;;;;0.90;0.90;;;0.30;99.90;;;;;;4972334;28;20039;-86
2021/12/07 06:53:09;;;;;;;0.80;0.80;;;0.30;99.90;;;;;;4974779;28;20047;-87
2021/12/07 06:55:35;;;;;;;0.90;0.90;;;0.30;99.90;;;;;;4953789;29;20094;-86
2021/12/07 06:58:01;;;;;;;0.90;0.90;;;0.30;99.90;;;;;;4964197;28;20057;-88
2021/12/07 07:00:26;;;;;;;1.13;0.95;;;0.30;99.90;;;;;;4961704;28;20380;-87
2021/12/07 07:02:52;;;;;;;0.90;0.90;;;0.20;99.90;;;;;;4965877;28;20519;-87
2021/12/07 07:05:18;;;;;;;0.90;0.90;;;0.20;99.90;;;;;;4970294;28;20097;-85
2021/12/07 07:07:44;;;;;;;0.80;0.80;;;0.20;99.90;;;;;;4963948;28;20063;-85
2021/12/07 07:10:13;;;;;;;0.85;0.85;;;0.10;99.90;;;;;;4967170;28;20047;-86
2021/12/07 07:12:39;;;;;;;0.90;0.90;;;0.10;99.90;;;;;;4955835;28;20035;-86
2021/12/07 07:15:06;;;;;;;0.90;0.90;;;0.20;99.90;;;;;;4956529;28;20490;-87
2021/12/07 07:17:32;;;;;;;1.25;1.15;;;0.10;99.90;;;;;;4974780;28;20157;-85
2021/12/07 07:19:57;;;;;;;0.90;0.90;;;0.10;99.90;;;;;;4978295;28;20185;-86
2021/12/07 07:22:23;;;;;;;0.90;0.90;;;0.10;99.90;;;;;;4953962;28;20071;-86
2021/12/07 07:24:49;;;;;;;1.00;1.00;;;0.10;99.90;;;;;;4966398;28;20030;-87
2021/12/07 07:27:15;;;;;;;0.85;0.85;;;0.10;99.90;;;;;;4971144;28;20043;-87
2021/12/07 07:29:40;;;;;;;0.90;0.90;;;0.20;99.90;;;;;;4973089;28;20129;-88
2021/12/07 07:32:06;;;;;;;0.90;0.90;;;0.00;99.90;;;;;;4973987;28;20417;-88
2021/12/07 07:34:32;;;;;;;0.88;0.88;;;0.10;99.90;;;;;;4952142;28;20543;-86
2021/12/07 07:36:57;;;;;;;0.90;0.90;;;0.10;99.90;;;;;;4957333;28;20039;-86
2021/12/07 07:39:23;;;;;;;0.90;0.90;;;0.10;99.90;;;;;;4957861;28;20047;-87
2021/12/07 07:41:49;;;;;;;1.10;1.10;;;0.10;99.90;;;;;;4960384;29;20031;-86
2021/12/07 07:44:14;;;;;;;0.80;0.80;;;0.20;99.90;;;;;;4951703;29;20043;-87
2021/12/07 07:46:40;;;;;;;0.77;0.77;;;0.10;99.90;;;;;;4973431;28;20043;-89
2021/12/07 07:49:06;;;;;;;0.90;0.90;;;;;;;;;;4951442;28;20081;-89
2021/12/07 07:51:32;;;;;;;0.88;0.88;;;0.20;99.90;;;;;;4960585;28;20130;-88
2021/12/07 07:53:59;;;;;;;0.90;0.90;;;0.20;99.90;;;;;;4955897;28;20073;-87
2021/12/07 07:56:26;;;;;;;0.80;0.80;;;0.20;99.90;;;;;;4961992;28;20130;-86
2021/12/07 07:58:51;;;;;;;0.88;0.88;;;0.10;99.90;;;;;;4971032;28;20054;-86
2021/12/07 08:01:17;;;;;;;0.98;0.98;;;0.20;99.90;;;;;;4955313;29;20042;-87
2021/12/07 08:03:43;;;;;;;0.90;0.90;;;0.20;99.90;;;;;;4961492;28;20058;-87
2021/12/07 08:06:08;;;;;;;0.98;0.98;;;0.20;99.90;;;;;;4955006;28;20054;-87
2021/12/07 08:08:34;;;;;;;1.23;1.13;;;0.20;99.90;;;;;;4964913;28;20046;-86
2021/12/07 08:11:01;;;;;;;0.90;0.90;;;0.20;99.90;;;;;;4953482;28;20042;-86
2021/12/07 08:13:29;;;;;;;0.80;0.80;;;0.20;99.90;;;;;;4955664;28;20124;-85
2021/12/07 08:15:55;;;;;;;0.90;0.90;;;0.20;99.90;;;;;;4968466;28;20057;-85
2021/12/07 08:18:20;;;;;;;0.82;0.82;;;0.20;99.90;;;;;;4975936;28;20047;-86
2021/12/07 08:20:46;;;;;;;0.95;0.95;;;0.20;99.90;;;;;;4964392;28;20042;-86
2021/12/07 08:23:12;;;;;;;1.00;0.95;;;0.10;99.90;;;;;;4971936;28;20102;-88
2021/12/07 08:25:42;;;;;;;0.80;0.80;;;0.20;99.90;;;;;;4973313;28;20054;-87
2021/12/07 08:28:08;;;;;;;0.88;0.88;;;0.10;99.90;;;;;;4963261;28;20043;-88
2021/12/07 08:30:35;;;;;;;1.00;1.00;;;0.20;99.90;;;;;;4955400;28;20409;-85
2021/12/07 08:33:01;;;;;;;0.80;0.80;;;0.20;99.90;;;;;;4949018;28;20130;-88
2021/12/07 08:35:27;;;;;;;0.80;0.80;;;0.30;99.90;;;;;;4959173;29;20043;-88
2021/12/07 08:37:52;;;;;;;1.30;1.20;;;0.30;99.90;;;;;;4948804;28;20035;-87
2021/12/07 08:40:22;;;;;;;0.88;0.88;;;0.30;99.90;;;;;;4953318;28;20071;-87
2021/12/07 08:42:49;;;;;;;0.80;0.80;;;0.30;99.90;;;;;;4948406;28;20106;-88
2021/12/07 08:45:15;;;;;;;0.80;0.80;;;0.30;99.90;;;;;;4950339;28;20043;-88
2021/12/07 08:47:41;;;;;;;0.80;0.80;;;0.30;99.90;;;;;;4966375;28;20077;-86
2021/12/07 08:50:10;;;;;;;0.80;0.80;;;0.30;99.90;;;;;;4963989;28;20054;-85
2021/12/07 08:52:37;;;;;;;0.93;0.93;;;0.30;99.90;;;;;;4976894;28;20062;-85
2021/12/07 09:00:18;;;;;;;0.90;0.90;;;;;;;;;;4966642;28;20047;-90
2021/12/07 09:02:43;;;;;;;0.90;0.90;;;0.40;99.90;;;;;;4963134;28;20114;-90
2021/12/07 09:05:09;;;;;;;0.80;0.80;;;0.60;99.90;;;;;;4954147;29;20054;-87
2021/12/07 09:07:35;;;;;;;0.70;0.70;;;0.50;99.90;;;;;;4946187;29;20043;-88
2021/12/07 09:10:04;;;;;;;0.80;0.80;;;0.50;99.90;;;;;;4958699;28;20497;-87
2021/12/07 09:12:30;;;;;;;0.90;0.90;;;0.50;99.90;;;;;;4957894;28;20039;-89
2021/12/07 09:14:56;;;;;;;1.02;1.02;;;0.70;99.90;;;;;;4960231;28;20531;-88
2021/12/07 09:17:21;;;;;;;0.90;0.90;;;1.10;99.90;;;;;;4959702;28;20050;-87
2021/12/07 09:19:47;;;;;;;0.80;0.80;;;0.60;99.90;;;;;;4953467;28;20039;-87
2021/12/07 09:22:13;;;;;;;1.42;1.20;;;0.70;99.90;;;;;;4975139;28;20063;-88
2021/12/07 09:24:38;;;;;;;1.00;1.00;;;0.70;99.90;;;;;;4962743;28;20043;-88
2021/12/07 09:27:04;;;;;;;0.90;0.90;;;0.70;99.90;;;;;;4965047;28;20034;-89
2021/12/07 09:29:30;;;;;;;0.90;0.90;;;0.80;99.90;;;;;;4950245;29;20118;-88
2021/12/07 09:31:56;;;;;;;0.80;0.80;;;0.90;99.90;;;;;;4969620;28;20050;-87
2021/12/07 09:34:21;;;;;;;0.80;0.80;;;0.90;99.90;;;;;;4951644;28;20185;-88
2021/12/07 09:36:47;;;;;;;0.95;0.95;;;0.90;99.90;;;;;;4959867;28;20086;-86
2021/12/07 09:39:15;;;;;;;0.80;0.80;;;0.90;99.90;;;;;;4970394;28;20058;-87
2021/12/07 09:41:43;;;;;;;0.88;0.88;;;0.90;99.90;;;;;;4954860;28;20050;-87
2021/12/07 09:44:09;;;;;;;1.10;1.00;;;1.00;99.90;;;;;;4959170;28;20079;-87
2021/12/07 09:46:36;;;;;;;0.70;0.70;;;1.00;99.90;;;;;;4959395;28;20047;-87
2021/12/07 09:49:04;;;;;;;0.90;0.90;;;1.00;99.90;;;;;;4966407;28;20047;-87
2021/12/07 09:51:30;;;;;;;0.85;0.85;;;1.10;99.90;;;;;;4965680;28;20066;-87
2021/12/07 09:53:58;;;;;;;0.80;0.80;;;1.10;99.90;;;;;;4967731;28;20372;-86
2021/12/07 09:56:25;;;;;;;0.80;0.80;;;1.10;99.90;;;;;;4959480;28;20043;-88
2021/12/07 09:58:53;;;;;;;0.90;0.90;;;1.20;99.90;;;;;;4966763;28;20069;-87
2021/12/07 10:01:20;;;;;;;0.80;0.80;;;1.30;99.90;;;;;;4945193;29;20106;-88
2021/12/07 10:03:46;;;;;;;0.90;0.90;;;1.30;99.90;;;;;;4968108;28;20034;-89
2021/12/07 10:06:13;;;;;;;0.90;0.90;;;1.40;99.90;;;;;;4964553;28;20042;-89
2021/12/07 10:08:39;;;;;;;0.90;0.90;;;1.40;99.90;;;;;;4953223;28;20082;-89
2021/12/07 10:11:08;;;;;;;1.10;1.10;;;1.50;99.90;;;;;;4962979;28;20564;-87
2021/12/07 10:13:34;;;;;;;0.88;0.88;;;1.50;99.90;;;;;;4949643;28;20114;-87
2021/12/07 10:16:03;;;;;;;0.90;0.90;;;1.40;99.90;;;;;;4956691;28;20043;-86
2021/12/07 10:18:33;;;;;;;0.88;0.88;;;1.50;99.90;;;;;;4955948;28;20071;-87
2021/12/07 10:21:01;;;;;;;0.80;0.80;;;1.60;99.90;;;;;;4964848;28;20039;-87
2021/12/07 10:23:29;;;;;;;1.00;1.00;;;1.60;99.90;;;;;;4973251;28;20114;-85
2021/12/07 10:26:01;;;;;;;1.48;1.25;;;1.70;99.90;;;;;;4958234;28;20122;-86
2021/12/07 10:28:39;;;;;;;0.90;0.90;;;1.80;99.90;;;;;;4973375;28;20106;-86
2021/12/07 10:31:14;;;;;;;0.88;0.88;;;1.90;99.90;;;;;;4956365;28;20043;-87
2021/12/07 10:34:06;;;;;;;0.90;0.90;;;1.90;99.90;;;;;;4964825;28;20074;-87
2021/12/07 10:36:43;;;;;;;0.80;0.80;;;2.00;99.90;;;;;;4952799;28;20141;-85
2021/12/07 10:39:16;;;;;;;0.80;0.80;;;2.00;99.90;;;;;;4956094;29;20054;-88
2021/12/07 10:42:04;;;;;;;0.90;0.90;;;2.20;99.90;;;;;;4956092;28;20110;-86
2021/12/07 10:44:34;;;;;;;0.80;0.80;;;2.30;99.90;;;;;;4954967;28;20057;-88
2021/12/07 10:47:12;;;;;;;1.13;1.08;;;2.40;99.90;;;;;;4966686;28;20046;-87
2021/12/07 10:49:51;;;;;;;1.08;1.08;;;2.50;99.90;;;;;;4973478;28;20065;-86
2021/12/07 10:52:35;;;;;;;0.80;0.80;;;2.60;99.90;;;;;;4959509;28;20042;-87
2021/12/07 10:55:09;;;;;;;1.00;1.00;;;2.60;99.90;;;;;;4964323;28;20070;-87
2021/12/07 10:57:44;;;;;;;0.95;0.95;;;2.70;99.90;;;;;;4963464;28;20035;-88
2021/12/07 11:00:20;;;;;;;0.80;0.80;;;2.70;99.90;;;;;;4965233;28;20046;-88
2021/12/07 11:02:54;;;;;;;0.80;0.80;;;2.70;99.90;;;;;;4963142;28;20039;-88
2021/12/07 11:05:24;;;;;;;0.73;0.73;;;2.80;99.90;;;;;;4955108;28;20631;-87
2021/12/07 11:07:51;;;;;;;1.52;1.42;;;2.80;99.90;;;;;;4978850;28;20448;-87
2021/12/07 11:10:30;;;;;;;0.80;0.80;;;2.90;99.90;;;;;;4958551;28;20086;-87
2021/12/07 11:13:14;;;;;;;0.75;0.75;;;2.90;99.90;;;;;;4976407;28;20042;-89
2021/12/07 11:15:50;;;;;;;0.80;0.80;;;2.80;99.90;;;;;;4967577;28;20428;-88
2021/12/07 11:18:17;;;;;;;0.80;0.80;;;3.00;99.90;;;;;;4959354;28;20053;-88
2021/12/07 11:20:43;;;;;;;1.45;0.93;;;3.00;99.90;;;;;;4967190;28;20039;-87
2021/12/07 11:23:17;;;;;;;1.10;1.10;;;3.00;99.90;;;;;;4957959;28;20043;-87
2021/12/07 11:31:20;;;;;;;1.00;1.00;;;3.00;99.90;;;;;;4970214;28;20110;-88
2021/12/07 11:33:48;;;;;;;0.80;0.80;;;3.10;99.90;;;;;;4948834;28;20054;-87
2021/12/07 11:36:19;;;;;;;1.00;1.00;;;3.20;99.90;;;;;;4960819;28;20039;-88
2021/12/07 11:38:46;;;;;;;0.80;0.80;;;3.20;99.90;;;;;;4963352;28;20174;-89
2021/12/07 11:41:20;;;;;;;1.35;1.30;;;3.30;99.90;;;;;;4967718;28;20043;-87
2021/12/07 11:43:52;;;;;;;0.90;0.90;;;3.30;99.90;;;;;;4975415;28;20051;-87
2021/12/07 11:46:20;;;;;;;0.80;0.80;;;3.40;99.90;;;;;;4979174;28;20038;-87
2021/12/07 11:48:47;;;;;;;0.80;0.80;;;3.40;99.90;;;;;;4958392;28;20230;-87
2021/12/07 11:51:12;;;;;;;0.70;0.70;;;3.50;99.90;;;;;;4979908;28;20042;-88
2021/12/07 11:53:38;;;;;;;0.75;0.75;;;3.50;99.90;;;;;;4974217;28;20042;-88
2021/12/07 11:56:04;;;;;;;0.70;0.70;;;3.50;99.90;;;;;;4979575;28;20046;-88
2021/12/07 11:58:30;;;;;;;0.70;0.70;;;3.50;99.90;;;;;;4959020;28;20053;-89
2021/12/07 12:00:57;;;;;;;0.80;0.80;;;3.50;99.90;;;;;;4957882;28;20071;-89
2021/12/07 12:03:25;;;;;;;0.80;0.80;;;3.60;99.90;;;;;;4958817;28;20058;-88
2021/12/07 12:05:53;;;;;;;0.82;0.82;;;3.60;99.90;;;;;;4963193;28;20047;-89
2021/12/07 12:08:20;;;;;;;1.45;1.35;;;3.60;99.90;;;;;;4979115;28;20050;-88
2021/12/07 12:10:58;;;;;;;0.80;0.80;;;3.60;99.90;;;;;;4954904;28;20087;-87
2021/12/07 12:13:30;;;;;;;1.00;1.00;;;3.70;99.90;;;;;;4982593;28;20047;-88
2021/12/07 12:16:18;;;;;;;0.73;0.73;;;3.70;99.90;;;;;;4965270;28;20098;-84
2021/12/07 12:19:02;;;;;;;0.80;0.80;;;3.80;99.90;;;;;;4969160;28;20102;-86
2021/12/07 12:21:34;;;;;;;1.00;0.90;;;3.90;99.90;;;;;;4956046;28;20106;-86
2021/12/07 12:24:18;;;;;;;0.80;0.80;;;3.90;99.90;;;;;;4954443;28;20039;-86
2021/12/07 12:26:45;;;;;;;0.90;0.90;;;3.90;99.90;;;;;;4955425;28;20078;-85
2021/12/07 12:29:15;;;;;;;1.02;1.02;;;4.00;99.90;;;;;;4965923;28;20054;-86
2021/12/07 12:31:49;;;;;;;0.80;0.80;;;4.00;99.90;;;;;;4978971;28;20054;-88
2021/12/07 12:34:20;;;;;;;;;;;4.00;99.90;;;;;;4972538;28;20047;-89
2021/12/07 12:37:15;;;;;;;0.80;0.80;;;4.00;99.90;;;;;;4966260;28;19926;-87
2021/12/07 12:39:48;;;;;;;0.90;0.90;;;4.10;99.90;;;;;;4952034;28;20054;-87
2021/12/07 12:42:22;;;;;;;0.85;0.85;;;4.10;99.90;;;;;;4973286;28;20043;-87
2021/12/07 12:44:48;;;;;;;;;;;4.10;99.90;;;;;;4961506;28;20050;-87
2021/12/07 12:47:14;;;;;;;0.80;0.80;;;4.10;99.90;;;;;;4959442;28;19922;-88
2021/12/07 12:49:42;;;;;;;0.70;0.70;;;4.00;99.90;;;;;;4972630;28;20051;-88
2021/12/07 12:52:08;;;;;;;1.10;1.00;;;4.00;99.90;;;;;;4954489;29;20069;-88
2021/12/07 12:54:40;;;;;;;0.80;0.80;;;4.10;99.90;;;;;;4953935;28;20113;-90
2021/12/07 12:57:17;;;;;;;0.80;0.80;;;4.40;99.90;;;;;;4958665;28;20110;-90
2021/12/07 12:59:47;;;;;;;0.70;0.70;;;4.10;99.90;;;;;;4977473;28;20129;-88
2021/12/07 13:02:14;;;;;;;0.93;0.93;;;4.10;99.90;;;;;;4965900;28;20050;-88
2021/12/07 13:04:40;;;;;;;0.70;0.70;;;4.10;99.90;;;;;;4974131;28;20050;-87
2021/12/07 13:07:23;;;;;;;0.70;0.70;;;4.10;99.90;;;;;;4962856;28;20042;-87
2021/12/07 13:09:58;;;;;;;0.80;0.80;;;4.10;99.90;;;;;;4963213;28;20109;-89
2021/12/07 13:12:33;;;;;;;0.70;0.70;;;4.10;99.90;;;;;;4970685;28;20047;-89
2021/12/07 13:15:06;;;;;;;0.70;0.70;;;4.10;99.90;;;;;;4950697;28;20122;-88
2021/12/07 13:17:36;;;;;;;0.80;0.80;;;4.20;99.90;;;;;;4959591;29;20348;-89
2021/12/07 13:20:16;;;;;;;0.80;0.80;;;4.20;99.90;;;;;;4960054;28;20069;-89
2021/12/07 13:23:02;;;;;;;1.83;1.27;;;4.20;99.90;;;;;;4957183;28;20043;-93
2021/12/07 13:25:31;;;;;;;0.90;0.90;;;4.20;99.90;;;;;;4957302;28;20055;-91
2021/12/07 13:28:27;;;;;;;0.70;0.70;;;4.20;99.90;;;;;;4963644;28;20039;-89
2021/12/07 13:31:13;;;;;;;0.70;0.70;;;4.20;99.90;;;;;;4961690;29;20070;-90
2021/12/07 13:33:47;;;;;;;0.73;0.73;;;4.30;99.90;;;;;;4949697;28;20054;-94
2021/12/07 13:36:39;;;;;;;0.70;0.70;;;4.30;99.90;;;;;;4960099;28;20106;-87
2021/12/07 13:39:07;;;;;;;0.63;0.63;;;4.20;99.90;;;;;;4976711;28;20051;-86
2021/12/07 13:41:33;;;;;;;0.80;0.80;;;4.20;99.90;;;;;;4963102;28;20118;-87
2021/12/07 13:43:59;;;;;;;0.70;0.70;;;4.20;99.90;;;;;;4949970;28;20035;-91
2021/12/07 13:46:26;;;;;;;0.73;0.73;;;4.30;99.90;;;;;;4966237;28;20050;-92
2021/12/07 13:49:08;;;;;;;1.10;1.00;;;4.20;99.90;;;;;;4965286;28;20046;-92
2021/12/07 13:51:35;;;;;;;0.88;0.88;;;4.20;99.90;;;;;;4952641;28;20047;-90
2021/12/07 13:54:04;;;;;;;0.90;0.90;;;4.20;99.90;;;;;;4960148;28;20047;-91
2021/12/07 13:56:37;;;;;;;0.90;0.90;;;4.20;99.90;;;;;;4959543;28;20080;-91
2021/12/07 13:59:07;;;;;;;0.70;0.70;;;4.20;99.90;;;;;;4965502;28;20135;-87
2021/12/07 14:01:36;;;;;;;0.80;0.80;;;4.40;99.90;;;;;;4964672;28;20058;-91
2021/12/07 14:04:05;;;;;;;1.20;1.20;;;4.10;99.90;;;;;;4956782;28;20042;-91
2021/12/07 14:06:32;;;;;;;0.80;0.80;;;4.20;99.90;;;;;;4961634;28;20154;-91
2021/12/07 14:09:06;;;;;;;0.80;0.80;;;4.10;99.90;;;;;;4960480;28;20038;-92
2021/12/07 14:11:33;;;;;;;0.70;0.70;;;4.00;99.90;;;;;;4953871;28;20043;-89
2021/12/07 14:13:59;;;;;;;0.70;0.70;;;4.00;99.90;;;;;;4965767;28;20047;-91
2021/12/07 14:16:28;;;;;;;0.90;0.90;;;3.80;99.90;;;;;;4974000;28;20045;-88
2021/12/07 14:18:54;;;;;;;0.70;0.70;;;3.90;99.90;;;;;;4974553;28;20126;-89
2021/12/07 14:21:20;;;;;;;0.90;0.90;;;3.90;99.90;;;;;;4965433;28;20148;-89
2021/12/07 14:23:54;;;;;;;0.70;0.70;;;3.80;99.90;;;;;;4975953;28;20413;-87
2021/12/07 14:26:25;;;;;;;0.70;0.70;;;3.80;99.90;;;;;;4975087;28;20484;-88
2021/12/07 14:28:56;;;;;;;1.00;1.00;;;3.70;99.90;;;;;;4977161;28;20047;-88
2021/12/07 14:31:27;;;;;;;0.70;0.70;;;3.70;99.90;;;;;;4956111;28;20066;-88
2021/12/07 14:33:59;;;;;;;0.70;0.70;;;3.60;99.90;;;;;;4961234;28;20035;-88
2021/12/07 14:36:27;;;;;;;0.70;0.70;;;3.60;99.90;;;;;;4946764;28;20046;-88
2021/12/07 14:38:55;;;;;;;0.70;0.70;;;3.70;99.90;;;;;;4971311;28;20036;-90
2021/12/07 14:41:30;;;;;;;0.77;0.77;;;3.60;99.90;;;;;;4968700;28;20156;-86
2021/12/07 14:43:57;;;;;;;1.00;1.00;;;3.50;99.90;;;;;;4971564;28;20134;-91
2021/12/07 14:46:24;;;;;;;1.00;1.00;;;3.50;99.90;;;;;;4955753;28;20043;-87
2021/12/07 14:48:52;;;;;;;0.80;0.80;;;3.40;99.90;;;;;;4967535;28;20043;-88